Time;durP1;ratioP1;P1;durP2;ratioP2;P2;SDS_P1;SDS_P2;PMS_P1;PMS_P2;Temp;Humidity;BMP_temperature;BMP_pressure;BME280_temperature;BME280_humidity;BME280_pressure;Samples;Min_cycle;Max_cycle;Signal;HPM_P1;HPM_P2
2021/03/17 00:02:20;;;;;;;6.07;4.53;;;;;;;-139.48;100.00;61774.03;5020886;28;20048;-69
2021/03/17 00:05:06;;;;;;;6.97;5.22;;;;;;;-139.48;100.00;61774.03;5036006;28;20564;-68
2021/03/17 00:07:51;;;;;;;6.55;4.50;;;;;;;-139.48;100.00;61774.03;5021058;28;20071;-68
2021/03/17 00:10:38;;;;;;;9.40;5.05;;;;;;;-139.48;100.00;61774.03;5007372;28;20099;-69
2021/03/17 00:13:29;;;;;;;7.78;5.22;;;;;;;-139.48;100.00;61774.03;5035799;28;20159;-69
2021/03/17 00:16:13;;;;;;;5.95;4.55;;;;;;;-139.48;100.00;61774.03;5035502;28;20048;-68
2021/03/17 00:18:57;;;;;;;6.55;5.10;;;;;;;-139.48;100.00;61774.03;5035535;28;20541;-67
2021/03/17 00:21:41;;;;;;;6.63;5.18;;;;;;;-139.48;100.00;61774.03;5020748;28;20091;-68
2021/03/17 00:24:25;;;;;;;7.78;5.85;;;;;;;-139.48;100.00;61774.03;5020425;28;20068;-68
2021/03/17 00:27:09;;;;;;;7.13;4.38;;;;;;;-139.48;100.00;61774.03;5035439;28;20060;-68
2021/03/17 00:29:53;;;;;;;10.40;6.30;;;;;;;-139.48;100.00;61774.03;5035308;28;20059;-68
2021/03/17 00:32:37;;;;;;;9.43;6.25;;;;;;;-139.48;100.00;61774.03;5020506;28;20422;-68
2021/03/17 00:35:22;;;;;;;8.18;5.32;;;;;;;-139.48;100.00;61774.03;5035235;28;20048;-68
2021/03/17 00:38:07;;;;;;;8.65;5.82;;;;;;;-139.48;100.00;61774.03;5020527;28;20425;-68
2021/03/17 00:40:50;;;;;;;11.13;6.20;;;;;;;-139.48;100.00;61774.03;5020383;28;20518;-68
2021/03/17 00:43:34;;;;;;;8.18;5.88;;;;;;;-139.48;100.00;61774.03;5020107;28;20132;-68
2021/03/17 00:46:19;;;;;;;10.35;6.03;;;;;;;-139.48;100.00;61774.03;5020090;28;20060;-69
2021/03/17 00:49:03;;;;;;;8.02;5.43;;;;;;;-139.48;100.00;61774.03;5034997;28;20056;-69
2021/03/17 00:51:46;;;;;;;8.27;5.25;;;;;;;-139.48;100.00;61774.03;5020084;28;20521;-69
2021/03/17 00:54:30;;;;;;;8.50;5.97;;;;;;;-139.48;100.00;61774.03;5034970;28;20048;-69
2021/03/17 00:57:15;;;;;;;6.93;4.97;;;;;;;-139.48;100.00;61774.03;5034663;28;20179;-68
2021/03/17 00:59:59;;;;;;;8.23;5.40;;;;;;;-139.48;100.00;61774.03;5035028;28;20076;-68
2021/03/17 01:02:43;;;;;;;7.30;4.88;;;;;;;-139.48;100.00;61774.03;5006132;28;20056;-69
2021/03/17 01:05:28;;;;;;;7.35;5.13;;;;;;;-139.48;100.00;61774.03;5034573;28;20055;-68
2021/03/17 01:08:13;;;;;;;6.57;5.10;;;;;;;-139.48;100.00;61774.03;5019959;28;20053;-68
2021/03/17 01:10:58;;;;;;;6.63;4.85;;;;;;;-139.48;100.00;61774.03;5035097;28;20129;-68
2021/03/17 01:13:42;;;;;;;7.03;4.70;;;;;;;-139.48;100.00;61774.03;5034413;28;20124;-69
2021/03/17 01:16:26;;;;;;;6.75;4.32;;;;;;;-139.48;100.00;61774.03;5019761;28;20091;-68
2021/03/17 01:19:11;;;;;;;5.68;4.75;;;;;;;-139.48;100.00;61774.03;5034674;28;20083;-68
2021/03/17 01:21:55;;;;;;;6.68;4.25;;;;;;;-139.48;100.00;61774.03;5034651;28;20516;-70
2021/03/17 01:24:39;;;;;;;5.72;3.95;;;;;;;-139.48;100.00;61774.03;5005705;28;20575;-68
2021/03/17 01:27:23;;;;;;;3.35;2.75;;;;;;;-139.48;100.00;61774.03;5019560;28;20509;-68
2021/03/17 01:30:10;;;;;;;4.28;2.78;;;;;;;-139.48;100.00;61774.03;5034469;28;20052;-68
2021/03/17 01:32:54;;;;;;;3.10;2.60;;;;;;;-139.48;100.00;61774.03;5034195;28;20048;-68
2021/03/17 01:35:40;;;;;;;3.20;2.35;;;;;;;-139.48;100.00;61774.03;5019076;28;20110;-68
2021/03/17 01:38:25;;;;;;;2.70;2.45;;;;;;;-139.48;100.00;61774.03;5019413;28;20140;-68
2021/03/17 01:41:10;;;;;;;2.22;1.85;;;;;;;-139.48;100.00;61774.03;5019247;28;20051;-69
2021/03/17 01:43:54;;;;;;;2.20;2.00;;;;;;;-139.48;100.00;61774.03;5005357;28;20052;-68
2021/03/17 01:46:38;;;;;;;2.38;2.00;;;;;;;-139.48;100.00;61774.03;5004824;28;20083;-68
2021/03/17 01:49:22;;;;;;;2.35;2.10;;;;;;;-139.48;100.00;61774.03;5018820;28;20421;-68
2021/03/17 01:52:06;;;;;;;2.33;2.13;;;;;;;-139.48;100.00;61774.03;5033978;28;20048;-69
2021/03/17 01:54:51;;;;;;;2.30;1.90;;;;;;;-139.48;100.00;61774.03;5033719;28;20052;-68
2021/03/17 01:57:37;;;;;;;2.70;2.20;;;;;;;-139.48;100.00;61774.03;5018726;28;20091;-68
2021/03/17 02:00:21;;;;;;;2.72;2.30;;;;;;;-139.48;100.00;61774.03;5005098;28;20103;-68
2021/03/17 02:03:08;;;;;;;2.33;1.95;;;;;;;-139.48;100.00;61774.03;5018977;28;20095;-68
2021/03/17 02:05:52;;;;;;;2.33;2.10;;;;;;;-139.48;100.00;61774.03;5018481;28;20406;-69
2021/03/17 02:08:39;;;;;;;3.17;2.20;;;;;;;-139.48;100.00;61774.03;5017888;28;20128;-68
2021/03/17 02:11:23;;;;;;;3.05;2.10;;;;;;;-139.48;100.00;61774.03;5033709;28;20052;-68
2021/03/17 02:14:38;;;;;;;2.25;1.90;;;;;;;-139.48;100.00;61774.03;5018717;28;20407;-67
2021/03/17 02:17:25;;;;;;;2.47;2.13;;;;;;;-139.48;100.00;61774.03;5018337;28;20049;-68
2021/03/17 02:20:30;;;;;;;5.05;2.15;;;;;;;-139.48;100.00;61774.03;5018642;28;20095;-68
2021/03/17 02:23:18;;;;;;;;;;;;;;;-139.48;100.00;61774.03;5033726;28;20078;-68
2021/03/17 02:26:30;;;;;;;2.25;2.03;;;;;;;-139.48;100.00;61774.03;5018341;28;19920;-68
2021/03/17 02:29:14;;;;;;;4.72;2.42;;;;;;;-139.48;100.00;61774.03;5033501;28;20049;-68
2021/03/17 02:32:08;;;;;;;2.60;2.38;;;;;;;-139.48;100.00;61774.03;5033108;28;20048;-68
2021/03/17 02:34:54;;;;;;;2.80;2.17;;;;;;;-139.48;100.00;61774.03;5018226;28;20088;-69
2021/03/17 02:37:43;;;;;;;3.00;2.30;;;;;;;-139.48;100.00;61774.03;5018487;28;20052;-68
2021/03/17 02:40:32;;;;;;;3.00;2.50;;;;;;;-139.48;100.00;61774.03;5018152;28;20513;-68
2021/03/17 02:43:22;;;;;;;2.75;2.40;;;;;;;-139.48;100.00;61774.03;5018498;28;20043;-68
2021/03/17 02:46:10;;;;;;;2.97;2.40;;;;;;;-139.48;100.00;61774.03;5018109;28;20581;-68
2021/03/17 02:49:07;;;;;;;2.85;2.40;;;;;;;-139.48;100.00;61774.03;5018433;28;20052;-68
2021/03/17 02:51:55;;;;;;;3.70;2.60;;;;;;;-139.48;100.00;61774.03;5018280;28;20540;-68
2021/03/17 02:54:42;;;;;;;4.55;2.70;;;;;;;-139.48;100.00;61774.03;5032883;28;20052;-68
2021/03/17 02:57:27;;;;;;;3.53;2.50;;;;;;;-139.48;100.00;61774.03;5018378;28;20131;-68
2021/03/17 03:00:13;;;;;;;3.38;2.80;;;;;;;-139.48;100.00;61774.03;5018455;28;20067;-69
2021/03/17 03:02:59;;;;;;;2.92;2.63;;;;;;;-139.48;100.00;61774.03;5018088;28;20087;-69
2021/03/17 03:05:44;;;;;;;2.88;2.58;;;;;;;-139.48;100.00;61774.03;5017854;28;20584;-68
2021/03/17 03:08:29;;;;;;;2.47;2.25;;;;;;;-139.48;100.00;61774.03;5018231;28;20052;-69
2021/03/17 03:11:14;;;;;;;3.90;2.97;;;;;;;-139.48;100.00;61774.03;5018171;28;20049;-69
2021/03/17 03:13:58;;;;;;;4.03;2.97;;;;;;;-139.48;100.00;61774.03;5032946;28;20045;-69
2021/03/17 03:16:42;;;;;;;3.42;2.67;;;;;;;-139.48;100.00;61774.03;5017788;28;20044;-68
2021/03/17 03:19:32;;;;;;;4.20;2.72;;;;;;;-139.48;100.00;61774.03;5020290;28;20474;-69
2021/03/17 03:22:18;;;;;;;3.85;3.08;;;;;;;-139.48;100.00;61774.03;5021763;28;20076;-68
2021/03/17 03:25:03;;;;;;;3.42;2.85;;;;;;;-139.48;100.00;61774.03;5021500;28;20095;-68
2021/03/17 03:27:48;;;;;;;4.28;3.08;;;;;;;-139.48;100.00;61774.03;5036747;28;20409;-66
2021/03/17 03:30:32;;;;;;;6.55;3.08;;;;;;;-139.48;100.00;61774.03;5036458;28;20576;-69
2021/03/17 03:33:18;;;;;;;5.35;3.03;;;;;;;-139.48;100.00;61774.03;5021686;28;20049;-69
2021/03/17 03:36:02;;;;;;;3.28;2.95;;;;;;;-139.48;100.00;61774.03;5021330;28;20068;-69
2021/03/17 03:38:47;;;;;;;3.75;3.13;;;;;;;-139.48;100.00;61774.03;5007931;28;20083;-68
2021/03/17 03:41:31;;;;;;;4.60;3.13;;;;;;;-139.48;100.00;61774.03;5021302;28;20079;-69
2021/03/17 03:44:15;;;;;;;;;;;;;;;-139.48;100.00;61774.03;5036596;28;20068;-69
2021/03/17 03:46:59;;;;;;;4.43;3.00;;;;;;;-139.48;100.00;61774.03;5021027;28;20034;-69
2021/03/17 03:49:43;;;;;;;4.85;3.50;;;;;;;-139.48;100.00;61774.03;5021691;28;20095;-69
2021/03/17 03:52:41;;;;;;;3.60;3.08;;;;;;;-139.48;100.00;61774.03;5036227;28;20068;-68
2021/03/17 03:55:30;;;;;;;5.13;3.30;;;;;;;-139.48;100.00;61774.03;5021016;28;20128;-69
2021/03/17 03:58:38;;;;;;;3.88;3.25;;;;;;;-139.48;100.00;61774.03;5007122;28;20047;-68
2021/03/17 04:01:35;;;;;;;3.88;3.17;;;;;;;-139.48;100.00;61774.03;5007430;28;20103;-68
2021/03/17 04:04:22;;;;;;;5.13;3.38;;;;;;;-139.48;100.00;61774.03;5020903;28;20045;-69
2021/03/17 04:07:06;;;;;;;5.18;3.50;;;;;;;-139.48;100.00;61774.03;5021131;28;20052;-69
2021/03/17 04:09:52;;;;;;;4.35;3.15;;;;;;;-139.48;100.00;61774.03;5035942;28;20049;-68
2021/03/17 04:12:38;;;;;;;6.57;3.38;;;;;;;-139.48;100.00;61774.03;5020733;28;20048;-68
2021/03/17 04:15:23;;;;;;;5.00;3.22;;;;;;;-139.48;100.00;61774.03;5020791;28;20095;-69
2021/03/17 04:18:13;;;;;;;3.40;3.08;;;;;;;-139.48;100.00;61774.03;5020554;28;20461;-68
2021/03/17 04:21:01;;;;;;;4.20;3.53;;;;;;;-139.48;100.00;61774.03;5020587;28;20052;-69
2021/03/17 04:23:48;;;;;;;5.28;3.47;;;;;;;-139.48;100.00;61774.03;5020737;28;20048;-68
2021/03/17 04:26:35;;;;;;;5.40;3.20;;;;;;;-139.48;100.00;61774.03;5020408;28;20414;-69
2021/03/17 04:29:20;;;;;;;5.07;3.88;;;;;;;-139.48;100.00;61774.03;5020240;28;20051;-68
2021/03/17 04:32:05;;;;;;;4.28;3.60;;;;;;;-139.48;100.00;61774.03;5035180;28;20095;-68
2021/03/17 04:34:51;;;;;;;4.55;3.63;;;;;;;-139.48;100.00;61774.03;5020583;28;20473;-68
2021/03/17 04:37:35;;;;;;;5.70;3.92;;;;;;;-139.48;100.00;61774.03;5035270;28;20513;-68
2021/03/17 04:40:20;;;;;;;4.28;3.50;;;;;;;-139.48;100.00;61774.03;5020421;28;20136;-68
2021/03/17 04:43:04;;;;;;;4.50;3.72;;;;;;;-139.48;100.00;61774.03;5035323;28;20087;-68
2021/03/17 04:45:49;;;;;;;3.65;3.13;;;;;;;-139.48;100.00;61774.03;5034825;28;20056;-69
2021/03/17 04:48:34;;;;;;;4.68;3.30;;;;;;;-139.48;100.00;61774.03;5007948;28;20051;-68
2021/03/17 04:51:19;;;;;;;4.82;3.75;;;;;;;-139.48;100.00;61774.03;5020263;28;20163;-67
2021/03/17 04:54:05;;;;;;;4.97;3.78;;;;;;;-139.48;100.00;61774.03;5019910;28;20399;-68
2021/03/17 04:56:50;;;;;;;3.97;3.13;;;;;;;-139.48;100.00;61774.03;5034791;28;20057;-68
2021/03/17 04:59:35;;;;;;;5.05;3.88;;;;;;;-139.48;100.00;61774.03;5019831;28;20099;-68
2021/03/17 05:02:23;;;;;;;4.82;3.95;;;;;;;-139.48;100.00;61774.03;5035081;28;20045;-68
2021/03/17 05:05:10;;;;;;;5.03;3.80;;;;;;;-139.48;100.00;61774.03;5034890;28;20056;-69
2021/03/17 05:07:55;;;;;;;4.68;3.47;;;;;;;-139.48;100.00;61774.03;5034882;28;20052;-68
2021/03/17 05:10:40;;;;;;;5.43;3.60;;;;;;;-139.48;100.00;61774.03;5019901;28;20052;-68
2021/03/17 05:13:23;;;;;;;6.13;4.20;;;;;;;-139.48;100.00;61774.03;5019738;28;20473;-68
2021/03/17 05:16:10;;;;;;;6.10;3.67;;;;;;;-139.48;100.00;61774.03;5034346;28;20064;-68
2021/03/17 05:18:55;;;;;;;4.07;3.58;;;;;;;-139.48;100.00;61774.03;5019677;28;20051;-68
2021/03/17 05:21:40;;;;;;;4.15;3.20;;;;;;;-139.48;100.00;61774.03;5019462;28;20048;-68
2021/03/17 05:24:25;;;;;;;3.70;3.22;;;;;;;-139.48;100.00;61774.03;5019820;28;20084;-67
2021/03/17 05:27:14;;;;;;;4.90;3.67;;;;;;;-139.48;100.00;61774.03;5019505;28;20551;-67
2021/03/17 05:29:59;;;;;;;4.28;3.28;;;;;;;-139.48;100.00;61774.03;5019641;28;20138;-67
2021/03/17 05:32:46;;;;;;;4.07;3.28;;;;;;;-139.48;100.00;61774.03;5034357;28;20133;-66
2021/03/17 05:35:30;;;;;;;4.50;3.45;;;;;;;-139.48;100.00;61774.03;5005451;28;20068;-67
2021/03/17 05:38:14;;;;;;;5.80;3.95;;;;;;;-139.48;100.00;61774.03;5019557;28;20147;-67
2021/03/17 05:40:58;;;;;;;7.00;4.20;;;;;;;-139.48;100.00;61774.03;5005335;28;20056;-67
2021/03/17 05:43:42;;;;;;;4.05;3.42;;;;;;;-139.48;100.00;61774.03;5034119;28;20410;-66
2021/03/17 05:46:27;;;;;;;5.20;4.00;;;;;;;-139.48;100.00;61774.03;5033920;28;20143;-66
2021/03/17 05:49:12;;;;;;;4.85;3.53;;;;;;;-139.48;100.00;61774.03;5019268;28;20129;-66
2021/03/17 05:51:57;;;;;;;5.03;3.78;;;;;;;-139.48;100.00;61774.03;5018748;28;20095;-66
2021/03/17 05:54:42;;;;;;;4.43;3.53;;;;;;;-139.48;100.00;61774.03;5033997;28;20048;-66
2021/03/17 05:57:26;;;;;;;4.07;3.60;;;;;;;-139.48;100.00;61774.03;5018769;28;20418;-67
2021/03/17 06:00:13;;;;;;;4.50;3.65;;;;;;;-139.48;100.00;61774.03;5034001;28;20128;-67
2021/03/17 06:02:58;;;;;;;6.05;4.22;;;;;;;-139.48;100.00;61774.03;5033611;28;20044;-66
2021/03/17 06:05:45;;;;;;;4.82;4.30;;;;;;;-139.48;100.00;61774.03;5033449;28;20091;-66
2021/03/17 06:08:37;;;;;;;7.32;4.50;;;;;;;-139.48;100.00;61774.03;5018873;28;20076;-66
2021/03/17 06:11:22;;;;;;;6.05;3.85;;;;;;;-139.48;100.00;61774.03;5018849;28;20048;-63
2021/03/17 06:14:08;;;;;;;5.45;3.78;;;;;;;-139.48;100.00;61774.03;5018414;28;20091;-66
2021/03/17 06:17:00;;;;;;;5.00;3.75;;;;;;;-139.48;100.00;61774.03;5018455;28;20048;-66
2021/03/17 06:19:47;;;;;;;6.65;4.18;;;;;;;-139.48;100.00;61774.03;5018639;28;20047;-66
2021/03/17 06:22:33;;;;;;;5.63;4.00;;;;;;;-139.48;100.00;61774.03;5033817;28;20087;-65
2021/03/17 06:25:18;;;;;;;5.68;4.25;;;;;;;-139.48;100.00;61774.03;5033375;28;20047;-67
2021/03/17 06:28:02;;;;;;;5.18;4.30;;;;;;;-139.48;100.00;61774.03;5033670;28;20048;-67
2021/03/17 06:30:47;;;;;;;6.35;4.22;;;;;;;-139.48;100.00;61774.03;5018470;28;20490;-66
2021/03/17 06:33:31;;;;;;;5.18;4.07;;;;;;;-139.48;100.00;61774.03;5018378;28;20107;-67
2021/03/17 06:36:17;;;;;;;5.78;4.07;;;;;;;-139.48;100.00;61774.03;5033172;28;20568;-66
2021/03/17 06:39:09;;;;;;;5.53;4.00;;;;;;;-139.48;100.00;61774.03;5018390;28;20115;-66
2021/03/17 06:41:54;;;;;;;7.38;4.63;;;;;;;-139.48;100.00;61774.03;5018294;28;20053;-66
2021/03/17 06:44:39;;;;;;;8.27;6.00;;;;;;;-139.48;100.00;61774.03;5018457;28;20052;-66
2021/03/17 06:47:23;;;;;;;9.20;5.05;;;;;;;-139.48;100.00;61774.03;5018298;28;20056;-66
2021/03/17 06:50:12;;;;;;;10.68;7.15;;;;;;;-139.48;100.00;61774.03;5018123;28;20415;-66
2021/03/17 06:52:57;;;;;;;10.20;7.40;;;;;;;-139.48;100.00;61774.03;5032961;28;20419;-66
2021/03/17 06:55:40;;;;;;;13.32;8.48;;;;;;;-139.48;100.00;61774.03;5022213;28;20056;-66
2021/03/17 06:58:38;;;;;;;13.95;8.52;;;;;;;-139.48;100.00;61774.03;5022401;28;20056;-66
2021/03/17 07:01:32;;;;;;;15.23;9.30;;;;;;;-139.48;100.00;61774.03;5022079;28;20402;-64
2021/03/17 07:04:17;;;;;;;13.05;8.63;;;;;;;-139.48;100.00;61774.03;5037342;28;20041;-65
2021/03/17 07:07:02;;;;;;;15.70;9.70;;;;;;;-139.48;100.00;61774.03;5036885;28;20068;-66
2021/03/17 07:09:58;;;;;;;15.43;9.50;;;;;;;-139.48;100.00;61774.03;5022172;28;20500;-64
2021/03/17 07:12:42;;;;;;;21.33;13.05;;;;;;;-139.48;100.00;61774.03;5008176;28;20044;-64
2021/03/17 07:15:26;;;;;;;19.30;11.80;;;;;;;-139.48;100.00;61774.03;5021567;28;20052;-65
2021/03/17 07:18:31;;;;;;;20.95;11.23;;;;;;;-139.48;100.00;61774.03;5021889;28;20183;-65
2021/03/17 07:21:15;;;;;;;21.92;12.13;;;;;;;-139.48;100.00;61774.03;5036950;28;20045;-64
2021/03/17 07:24:00;;;;;;;19.40;11.43;;;;;;;-139.48;100.00;61774.03;5021828;28;20056;-65
2021/03/17 07:26:44;;;;;;;19.48;12.05;;;;;;;-139.48;100.00;61774.03;5021749;28;20048;-64
2021/03/17 07:29:28;;;;;;;24.20;13.00;;;;;;;-139.48;100.00;61774.03;5021917;28;20107;-66
2021/03/17 07:32:13;;;;;;;22.52;12.90;;;;;;;-139.48;100.00;61774.03;5036486;28;20052;-65
2021/03/17 07:34:56;;;;;;;21.50;12.15;;;;;;;-139.48;100.00;61774.03;5036436;28;20056;-66
2021/03/17 07:37:41;;;;;;;19.50;12.23;;;;;;;-139.48;100.00;61774.03;5036752;28;20465;-66
2021/03/17 07:40:25;;;;;;;22.20;12.68;;;;;;;-139.48;100.00;61774.03;5021525;28;20095;-66
2021/03/17 07:43:10;;;;;;;24.85;12.55;;;;;;;-139.48;100.00;61774.03;5021592;28;20052;-66
2021/03/17 07:45:54;;;;;;;21.95;12.00;;;;;;;-139.48;100.00;61774.03;5021458;28;20080;-66
2021/03/17 07:48:38;;;;;;;22.10;12.48;;;;;;;-139.48;100.00;61774.03;5036272;28;20087;-65
2021/03/17 07:51:23;;;;;;;21.70;12.38;;;;;;;-139.48;100.00;61774.03;5036406;28;20080;-66
2021/03/17 07:54:09;;;;;;;21.20;12.50;;;;;;;-139.48;100.00;61774.03;5021749;28;20163;-65
2021/03/17 07:56:55;;;;;;;22.63;12.73;;;;;;;-139.48;100.00;61774.03;5007242;28;20044;-66
2021/03/17 07:59:41;;;;;;;23.60;13.25;;;;;;;-139.48;100.00;61774.03;5021338;28;20398;-66
2021/03/17 08:02:25;;;;;;;25.60;14.02;;;;;;;-139.48;100.00;61774.03;5036242;28;20125;-65
2021/03/17 08:05:09;;;;;;;22.98;14.07;;;;;;;-139.48;100.00;61774.03;5019897;28;20056;-66
2021/03/17 08:07:54;;;;;;;23.45;13.50;;;;;;;-139.48;100.00;61774.03;5021152;28;20043;-65
2021/03/17 08:10:43;;;;;;;20.48;12.13;;;;;;;-139.48;100.00;61774.03;5021249;28;20060;-65
2021/03/17 08:13:28;;;;;;;22.70;12.25;;;;;;;-139.48;100.00;61774.03;5007131;28;20044;-64
2021/03/17 08:16:13;;;;;;;21.13;12.38;;;;;;;-139.48;100.00;61774.03;5020642;28;20134;-65
2021/03/17 08:18:57;;;;;;;20.25;11.63;;;;;;;-139.48;100.00;61774.03;5020981;28;20045;-64
2021/03/17 08:21:45;;;;;;;21.42;11.63;;;;;;;-139.48;100.00;61774.03;5020834;28;20159;-64
2021/03/17 08:24:29;;;;;;;20.98;11.98;;;;;;;-139.48;100.00;61774.03;5035523;28;20053;-65
2021/03/17 08:27:18;;;;;;;19.75;11.73;;;;;;;-139.48;100.00;61774.03;5035718;28;20080;-65
2021/03/17 08:30:07;;;;;;;22.45;11.52;;;;;;;-139.48;100.00;61774.03;5020506;28;20418;-65
2021/03/17 08:33:02;;;;;;;17.35;11.07;;;;;;;-139.48;100.00;61774.03;5035609;28;20187;-65
2021/03/17 08:36:19;;;;;;;20.20;10.57;;;;;;;-139.48;100.00;61774.03;5020619;28;20098;-65
2021/03/17 08:39:03;;;;;;;18.50;10.55;;;;;;;-139.48;100.00;61774.03;4987461;28;20047;-65
2021/03/17 08:41:48;;;;;;;16.20;10.05;;;;;;;-139.48;100.00;61774.03;5020609;28;20080;-65
2021/03/17 08:44:43;;;;;;;16.58;9.70;;;;;;;-139.48;100.00;61774.03;5035508;28;20469;-65
2021/03/17 08:47:45;;;;;;;15.43;9.75;;;;;;;-139.48;100.00;61774.03;5020184;28;20048;-62
2021/03/17 08:50:31;;;;;;;19.85;9.95;;;;;;;-139.48;100.00;61774.03;5020291;28;20052;-65
2021/03/17 08:53:40;;;;;;;16.17;9.57;;;;;;;-139.48;100.00;61774.03;5020146;28;20059;-64
2021/03/17 08:56:49;;;;;;;16.35;10.45;;;;;;;-139.48;100.00;61774.03;5034968;28;20516;-65
2021/03/17 08:59:50;;;;;;;16.58;11.10;;;;;;;-139.48;100.00;61774.03;5019721;28;20129;-66
2021/03/17 09:02:36;;;;;;;17.65;10.13;;;;;;;-139.48;100.00;61774.03;5020039;28;20140;-66
2021/03/17 09:05:21;;;;;;;17.13;9.50;;;;;;;-139.48;100.00;61774.03;5034867;28;20043;-66
2021/03/17 09:08:09;;;;;;;15.65;9.48;;;;;;;-139.48;100.00;61774.03;5020010;28;20524;-66
2021/03/17 09:10:54;;;;;;;14.55;8.88;;;;;;;-139.48;100.00;61774.03;5034559;28;20187;-66
2021/03/17 09:13:48;;;;;;;16.25;9.65;;;;;;;-139.48;100.00;61774.03;5005607;28;20057;-64
2021/03/17 09:16:36;;;;;;;;;;;;;;;-139.48;100.00;61774.03;5019530;28;20099;-66
2021/03/17 09:19:20;;;;;;;16.85;9.90;;;;;;;-139.48;100.00;61774.03;5019385;28;20419;-66
2021/03/17 09:22:35;;;;;;;14.18;9.07;;;;;;;-139.48;100.00;61774.03;5034563;28;20418;-66
2021/03/17 09:25:26;;;;;;;19.53;11.17;;;;;;;-139.48;100.00;61774.03;5034192;28;20064;-66
2021/03/17 09:28:27;;;;;;;17.90;10.18;;;;;;;-139.48;100.00;61774.03;5034570;28;20191;-65
2021/03/17 09:31:11;;;;;;;17.95;10.52;;;;;;;-139.48;100.00;61774.03;5019353;28;20072;-66
2021/03/17 09:33:55;;;;;;;16.92;10.00;;;;;;;-139.48;100.00;61774.03;5034412;28;20088;-66
2021/03/17 09:36:39;;;;;;;19.77;9.93;;;;;;;-139.48;100.00;61774.03;5005216;28;20052;-65
2021/03/17 09:39:23;;;;;;;17.45;10.65;;;;;;;-139.48;100.00;61774.03;5019205;28;20111;-65
2021/03/17 09:42:15;;;;;;;15.80;10.25;;;;;;;-139.48;100.00;61774.03;5019411;28;20126;-66
2021/03/17 09:44:59;;;;;;;15.68;10.18;;;;;;;-139.48;100.00;61774.03;5019054;28;20160;-67
2021/03/17 09:47:43;;;;;;;18.05;10.75;;;;;;;-139.48;100.00;61774.03;5033925;28;20080;-65
2021/03/17 09:50:27;;;;;;;16.20;9.68;;;;;;;-139.48;100.00;61774.03;5019190;28;20055;-66
2021/03/17 09:53:16;;;;;;;13.07;8.65;;;;;;;-139.48;100.00;61774.03;5034068;28;20409;-65
2021/03/17 09:56:00;;;;;;;15.38;9.18;;;;;;;-139.48;100.00;61774.03;5018741;28;20060;-66
2021/03/17 09:58:44;;;;;;;12.13;8.38;;;;;;;-139.48;100.00;61774.03;5019063;28;20044;-65
2021/03/17 10:01:28;;;;;;;16.05;8.93;;;;;;;-139.48;100.00;61774.03;5034029;28;20052;-65
2021/03/17 10:04:26;;;;;;;14.50;7.57;;;;;;;-139.48;100.00;61774.03;5019164;28;20517;-65
2021/03/17 10:07:18;;;;;;;13.57;7.82;;;;;;;-139.48;100.00;61774.03;5018609;28;20094;-65
2021/03/17 10:10:04;;;;;;;12.50;7.78;;;;;;;-139.48;100.00;61774.03;5033619;28;20052;-65
2021/03/17 10:12:49;;;;;;;11.95;6.95;;;;;;;-139.48;100.00;61774.03;5018695;28;20049;-65
2021/03/17 10:15:33;;;;;;;12.27;7.88;;;;;;;-139.48;100.00;61774.03;5018673;28;20513;-66
2021/03/17 10:18:17;;;;;;;10.02;6.65;;;;;;;-139.48;100.00;61774.03;5018371;28;20525;-65
2021/03/17 10:21:02;;;;;;;11.80;6.70;;;;;;;-139.48;100.00;61774.03;5018696;28;20079;-66
2021/03/17 10:23:49;;;;;;;10.10;6.97;;;;;;;-139.48;100.00;61774.03;5004729;28;20124;-66
2021/03/17 10:26:36;;;;;;;10.60;6.43;;;;;;;-139.48;100.00;61774.03;5033201;28;20052;-65
2021/03/17 10:29:20;;;;;;;8.10;5.68;;;;;;;-139.48;100.00;61774.03;5017983;28;20044;-66
2021/03/17 10:32:05;;;;;;;8.50;6.20;;;;;;;-139.48;100.00;61774.03;5033075;28;20414;-64
2021/03/17 10:34:50;;;;;;;10.50;6.15;;;;;;;-139.48;100.00;61774.03;5018526;28;20111;-66
2021/03/17 10:37:35;;;;;;;9.45;6.03;;;;;;;-139.48;100.00;61774.03;5018469;28;20048;-66
2021/03/17 10:40:23;;;;;;;6.35;3.00;;;;;;;-139.48;100.00;61774.03;5033198;28;20059;-65
2021/03/17 10:43:13;;;;;;;8.43;5.45;;;;;;;-139.48;100.00;61774.03;5018493;28;20047;-65
2021/03/17 10:46:02;;;;;;;9.35;4.82;;;;;;;-139.48;100.00;61774.03;5017986;28;20051;-65
2021/03/17 10:48:47;;;;;;;6.38;4.03;;;;;;;-139.48;100.00;61774.03;5017639;28;20521;-66
2021/03/17 10:51:31;;;;;;;7.70;4.60;;;;;;;-139.48;100.00;61774.03;5017712;28;20049;-65
2021/03/17 10:54:15;;;;;;;9.30;4.20;;;;;;;-139.48;100.00;61774.03;5018203;28;20040;-66
2021/03/17 10:57:02;;;;;;;8.70;4.55;;;;;;;-139.48;100.00;61774.03;5032162;28;20576;-66
2021/03/17 10:59:46;;;;;;;7.57;5.10;;;;;;;-139.48;100.00;61774.03;5017652;28;20133;-66
2021/03/17 11:02:31;;;;;;;9.25;4.80;;;;;;;-139.48;100.00;61774.03;5017258;28;20056;-66
2021/03/17 11:05:15;;;;;;;10.32;4.30;;;;;;;-139.48;100.00;61774.03;5017461;28;20064;-65
2021/03/17 11:08:04;;;;;;;7.72;4.13;;;;;;;-139.48;100.00;61774.03;5032319;28;20119;-66
2021/03/17 11:10:48;;;;;;;7.05;4.30;;;;;;;-139.48;100.00;61774.03;5032443;28;20045;-65
2021/03/17 11:13:35;;;;;;;6.10;4.07;;;;;;;-139.48;100.00;61774.03;5031895;28;20072;-66
2021/03/17 11:16:35;;;;;;;5.93;4.57;;;;;;;-139.48;100.00;61774.03;5017259;28;20110;-65
2021/03/17 11:19:19;;;;;;;7.45;4.88;;;;;;;-139.48;100.00;61774.03;5003552;28;20429;-66
2021/03/17 11:22:03;;;;;;;6.38;4.05;;;;;;;-139.48;100.00;61774.03;5032207;28;20052;-65
2021/03/17 11:24:47;;;;;;;5.95;4.50;;;;;;;-139.48;100.00;61774.03;5017087;28;20119;-64
2021/03/17 11:27:31;;;;;;;8.07;4.88;;;;;;;-139.48;100.00;61774.03;5032075;28;20064;-64
2021/03/17 11:30:15;;;;;;;8.85;4.63;;;;;;;-139.48;100.00;61774.03;5016958;28;20075;-65
2021/03/17 11:32:59;;;;;;;6.85;4.38;;;;;;;-139.48;100.00;61774.03;5031810;28;20052;-65
2021/03/17 11:35:44;;;;;;;5.95;4.50;;;;;;;-139.48;100.00;61774.03;5017037;28;20099;-65
2021/03/17 11:38:29;;;;;;;8.30;4.95;;;;;;;-139.48;100.00;61774.03;5031658;28;20552;-64
2021/03/17 11:41:13;;;;;;;6.07;4.65;;;;;;;-139.48;100.00;61774.03;5035151;28;20052;-64
2021/03/17 11:43:57;;;;;;;5.55;4.13;;;;;;;-139.48;100.00;61774.03;5020009;28;20049;-65
2021/03/17 11:46:41;;;;;;;;;;;;;;;-139.48;100.00;61774.03;4998674;28;634000;-63
2021/03/17 11:49:26;;;;;;;6.82;4.90;;;;;;;-139.48;100.00;61774.03;5036451;28;19919;-64
2021/03/17 11:52:10;;;;;;;10.75;6.93;;;;;;;-139.48;100.00;61774.03;5021038;28;20414;-64
2021/03/17 11:54:53;;;;;;;8.20;4.80;;;;;;;-139.48;100.00;61774.03;5007367;28;20060;-66
2021/03/17 11:57:37;;;;;;;5.53;4.13;;;;;;;-139.48;100.00;61774.03;5021290;28;20176;-64
2021/03/17 12:00:22;;;;;;;4.10;3.33;;;;;;;-139.48;100.00;61774.03;5020859;28;20136;-64
2021/03/17 12:03:06;;;;;;;6.32;4.10;;;;;;;-139.48;100.00;61774.03;5037740;28;20043;-68
2021/03/17 12:05:51;;;;;;;9.10;4.18;;;;;;;-139.48;100.00;61774.03;5020920;28;20413;-68
2021/03/17 12:08:36;;;;;;;5.88;4.10;;;;;;;-139.48;100.00;61774.03;5036021;28;20142;-67
2021/03/17 12:11:21;;;;;;;6.78;3.75;;;;;;;-139.48;100.00;61774.03;5021091;28;20044;-68
2021/03/17 12:14:05;;;;;;;4.95;4.05;;;;;;;-139.48;100.00;61774.03;5020627;28;20146;-68
2021/03/17 12:16:50;;;;;;;7.72;5.40;;;;;;;-139.48;100.00;61774.03;5020644;28;20150;-68
2021/03/17 12:19:34;;;;;;;6.07;4.00;;;;;;;-139.48;100.00;61774.03;5035821;28;20122;-67
2021/03/17 12:22:18;;;;;;;5.00;3.90;;;;;;;-139.48;100.00;61774.03;5020758;28;20091;-67
2021/03/17 12:25:04;;;;;;;4.80;3.65;;;;;;;-139.48;100.00;61774.03;5020726;28;20056;-68
2021/03/17 12:27:49;;;;;;;4.68;3.55;;;;;;;-139.48;100.00;61774.03;5035371;28;20052;-68
2021/03/17 12:30:33;;;;;;;7.47;6.65;;;;;;;-139.48;100.00;61774.03;5020569;28;20414;-68
2021/03/17 12:33:18;;;;;;;5.25;3.90;;;;;;;-139.48;100.00;61774.03;5035522;28;20433;-68
2021/03/17 12:36:03;;;;;;;4.40;3.70;;;;;;;-139.48;100.00;61774.03;5035413;28;20509;-67